Main page
METAR-TAF:

METAR-TAF

Airports :

RAF Waddington

Waddington, England

latitude: 53-10N, longitude: 000-31W, elevation: 68 m

Current weather observation

The report was made 31 minutes ago, at 19:50 UTC
Wind 15 kt from the South
Temperature 18°C
Humidity 49%
Pressure 1006 hPa
Visibility 10 km or more

METAR: EGXW 251950Z AUTO 18015KT 9999 SCT050/// BKN120/// 18/07 Q1006

Time: 21:21 (20:21 UTC)

Forecast

The report was made 2 hours and 23 minutes ago, at 17:58 UTC
Forecast valid from 25 at 18 UTC to 26 at 12 UTC
Wind 13 kt from the South
Visibility 10 km or more
no clouds below 1500 m and no cumulonimbus
Becoming
from 26 at 07 UTC to 26 at 09 UTC
Wind 15 kt from the South with gusts up to 25 kt

TAF: EGXW 251758Z 2518/2612 18013KT CAVOK BECMG 2607/2609 18015G25KT

Weather observations and forecasts of more than 4000 airports (METAR and TAF reports).

The available stations are represented by yellow and red dots on the map.

Hover mouse over dot to see the name of the station.

Then click to see weather observations and forecasts.

To change the map : click on the green buttons with a black cross to zoom in, on the green button with a dash to zoom out, or on the green arrows for adjacent maps.


METAR-TAF: